Sao Sebastiao da Grama, Brazil
Current Conditions -  °F | °C
As of 11:00 AM on Sunday 23 Nov 2014 (Local Time) from SBPC Reporting Station
Overcast Overcast  
Wind Chill: 70°   Ceiling: 1000
Heat Index: 70°   Visibility: 6mi
Dew Point: 68°   Wind: 3mph
Humidity: 94%   Direction: 280°W
Pressure: 30.12"   Gusts: NA
Location:  21.71°S, 46.82°W
Report Text: SBPC 231300Z 28003KT 9999 BKN010 OVC070 21/20 Q1020
Loading
Personal Weather Stations






























Interactive Weather Map New forecast layout! Learn more

10-Day Weather Forecast

Advertisements
Track Severe Weather on mobile